sensor_id;sensor_type;location;lat;lon;timestamp;P1;durP1;ratioP1;P2;durP2;ratioP2
5787;SDS011;2920;48.158;12.254;2023-02-04T00:00:07;3.13;;;1.38;;
5787;SDS011;2920;48.158;12.254;2023-02-04T00:02:39;1.35;;;1.25;;
5787;SDS011;2920;48.158;12.254;2023-02-04T00:05:04;1.80;;;1.13;;
5787;SDS011;2920;48.158;12.254;2023-02-04T00:07:30;0.88;;;0.88;;
5787;SDS011;2920;48.158;12.254;2023-02-04T00:09:55;1.33;;;0.90;;
5787;SDS011;2920;48.158;12.254;2023-02-04T00:12:21;2.10;;;0.82;;
5787;SDS011;2920;48.158;12.254;2023-02-04T00:14:46;3.30;;;0.98;;
5787;SDS011;2920;48.158;12.254;2023-02-04T00:17:11;1.48;;;1.00;;
5787;SDS011;2920;48.158;12.254;2023-02-04T00:19:37;1.20;;;1.10;;
5787;SDS011;2920;48.158;12.254;2023-02-04T00:22:03;1.80;;;1.05;;
5787;SDS011;2920;48.158;12.254;2023-02-04T00:24:29;4.95;;;1.00;;
5787;SDS011;2920;48.158;12.254;2023-02-04T00:26:55;3.45;;;0.98;;
5787;SDS011;2920;48.158;12.254;2023-02-04T00:29:20;2.53;;;1.10;;
5787;SDS011;2920;48.158;12.254;2023-02-04T00:31:46;3.20;;;1.10;;
5787;SDS011;2920;48.158;12.254;2023-02-04T00:34:11;5.35;;;1.55;;
5787;SDS011;2920;48.158;12.254;2023-02-04T00:36:36;1.45;;;1.20;;
5787;SDS011;2920;48.158;12.254;2023-02-04T00:39:02;1.73;;;1.52;;
5787;SDS011;2920;48.158;12.254;2023-02-04T00:41:27;5.70;;;1.52;;
5787;SDS011;2920;48.158;12.254;2023-02-04T00:43:52;6.50;;;2.47;;
5787;SDS011;2920;48.158;12.254;2023-02-04T00:46:18;2.85;;;1.70;;
5787;SDS011;2920;48.158;12.254;2023-02-04T00:48:43;5.10;;;2.20;;
5787;SDS011;2920;48.158;12.254;2023-02-04T00:51:08;4.38;;;1.75;;
5787;SDS011;2920;48.158;12.254;2023-02-04T00:53:34;5.22;;;2.33;;
5787;SDS011;2920;48.158;12.254;2023-02-04T00:55:59;6.45;;;2.08;;
5787;SDS011;2920;48.158;12.254;2023-02-04T00:58:24;4.88;;;2.42;;
5787;SDS011;2920;48.158;12.254;2023-02-04T01:00:49;8.85;;;2.13;;
5787;SDS011;2920;48.158;12.254;2023-02-04T01:03:15;8.27;;;2.50;;
5787;SDS011;2920;48.158;12.254;2023-02-04T01:05:40;8.88;;;2.25;;
5787;SDS011;2920;48.158;12.254;2023-02-04T01:08:05;10.02;;;2.30;;
5787;SDS011;2920;48.158;12.254;2023-02-04T01:10:31;7.72;;;2.78;;
5787;SDS011;2920;48.158;12.254;2023-02-04T01:12:56;6.07;;;2.42;;
5787;SDS011;2920;48.158;12.254;2023-02-04T01:15:21;8.10;;;2.10;;
5787;SDS011;2920;48.158;12.254;2023-02-04T01:17:47;6.88;;;2.75;;
5787;SDS011;2920;48.158;12.254;2023-02-04T01:20:12;8.25;;;2.40;;
5787;SDS011;2920;48.158;12.254;2023-02-04T01:22:38;10.52;;;3.25;;
5787;SDS011;2920;48.158;12.254;2023-02-04T01:25:03;9.13;;;2.22;;
5787;SDS011;2920;48.158;12.254;2023-02-04T01:27:29;7.20;;;3.15;;
5787;SDS011;2920;48.158;12.254;2023-02-04T01:29:54;13.52;;;2.95;;
5787;SDS011;2920;48.158;12.254;2023-02-04T01:32:19;5.93;;;1.95;;
5787;SDS011;2920;48.158;12.254;2023-02-04T01:34:45;5.95;;;2.08;;
5787;SDS011;2920;48.158;12.254;2023-02-04T01:37:10;6.40;;;2.70;;
5787;SDS011;2920;48.158;12.254;2023-02-04T01:39:35;6.68;;;2.33;;
5787;SDS011;2920;48.158;12.254;2023-02-04T01:42:01;8.20;;;2.15;;
5787;SDS011;2920;48.158;12.254;2023-02-04T01:44:27;7.43;;;2.45;;
5787;SDS011;2920;48.158;12.254;2023-02-04T01:46:53;6.32;;;2.05;;
5787;SDS011;2920;48.158;12.254;2023-02-04T01:49:18;6.50;;;2.63;;
5787;SDS011;2920;48.158;12.254;2023-02-04T01:51:44;9.45;;;2.08;;
5787;SDS011;2920;48.158;12.254;2023-02-04T01:54:12;10.73;;;2.15;;
5787;SDS011;2920;48.158;12.254;2023-02-04T01:56:38;11.10;;;2.63;;
5787;SDS011;2920;48.158;12.254;2023-02-04T01:59:09;9.05;;;2.38;;
5787;SDS011;2920;48.158;12.254;2023-02-04T02:01:40;20.90;;;3.17;;
5787;SDS011;2920;48.158;12.254;2023-02-04T02:04:08;8.05;;;2.85;;
5787;SDS011;2920;48.158;12.254;2023-02-04T02:06:35;12.38;;;3.58;;
5787;SDS011;2920;48.158;12.254;2023-02-04T02:09:01;13.20;;;3.08;;
5787;SDS011;2920;48.158;12.254;2023-02-04T02:11:26;10.95;;;3.00;;
5787;SDS011;2920;48.158;12.254;2023-02-04T02:13:52;12.30;;;3.15;;
5787;SDS011;2920;48.158;12.254;2023-02-04T02:16:17;10.55;;;3.15;;
5787;SDS011;2920;48.158;12.254;2023-02-04T02:18:42;7.68;;;2.47;;
5787;SDS011;2920;48.158;12.254;2023-02-04T02:21:08;12.00;;;2.50;;
5787;SDS011;2920;48.158;12.254;2023-02-04T02:26:11;14.63;;;3.45;;
5787;SDS011;2920;48.158;12.254;2023-02-04T02:28:37;11.27;;;2.88;;
5787;SDS011;2920;48.158;12.254;2023-02-04T02:31:02;9.95;;;2.83;;
5787;SDS011;2920;48.158;12.254;2023-02-04T02:33:28;6.20;;;2.28;;
5787;SDS011;2920;48.158;12.254;2023-02-04T02:35:53;5.95;;;2.40;;
5787;SDS011;2920;48.158;12.254;2023-02-04T02:38:19;14.00;;;3.80;;
5787;SDS011;2920;48.158;12.254;2023-02-04T02:40:44;11.68;;;2.17;;
5787;SDS011;2920;48.158;12.254;2023-02-04T02:43:13;5.03;;;2.40;;
5787;SDS011;2920;48.158;12.254;2023-02-04T02:45:40;10.02;;;2.65;;
5787;SDS011;2920;48.158;12.254;2023-02-04T02:48:05;10.43;;;2.80;;
5787;SDS011;2920;48.158;12.254;2023-02-04T02:50:31;8.15;;;2.42;;
5787;SDS011;2920;48.158;12.254;2023-02-04T02:52:57;9.93;;;2.58;;
5787;SDS011;2920;48.158;12.254;2023-02-04T02:55:24;6.57;;;2.20;;
5787;SDS011;2920;48.158;12.254;2023-02-04T02:57:50;7.18;;;2.45;;
5787;SDS011;2920;48.158;12.254;2023-02-04T03:00:17;6.93;;;2.10;;
5787;SDS011;2920;48.158;12.254;2023-02-04T03:02:55;11.52;;;2.53;;
5787;SDS011;2920;48.158;12.254;2023-02-04T03:05:23;11.40;;;2.70;;
5787;SDS011;2920;48.158;12.254;2023-02-04T03:07:49;17.17;;;3.33;;
5787;SDS011;2920;48.158;12.254;2023-02-04T03:10:15;9.23;;;2.78;;
5787;SDS011;2920;48.158;12.254;2023-02-04T03:12:41;8.93;;;2.50;;
5787;SDS011;2920;48.158;12.254;2023-02-04T03:15:07;8.30;;;2.88;;
5787;SDS011;2920;48.158;12.254;2023-02-04T03:17:32;10.32;;;2.53;;
5787;SDS011;2920;48.158;12.254;2023-02-04T03:19:58;7.30;;;2.78;;
5787;SDS011;2920;48.158;12.254;2023-02-04T03:22:23;8.52;;;2.72;;
5787;SDS011;2920;48.158;12.254;2023-02-04T03:24:49;7.70;;;2.58;;
5787;SDS011;2920;48.158;12.254;2023-02-04T03:27:14;6.40;;;2.60;;
5787;SDS011;2920;48.158;12.254;2023-02-04T03:29:43;7.78;;;2.67;;
5787;SDS011;2920;48.158;12.254;2023-02-04T03:32:08;8.83;;;2.63;;
5787;SDS011;2920;48.158;12.254;2023-02-04T03:34:33;11.18;;;3.03;;
5787;SDS011;2920;48.158;12.254;2023-02-04T03:36:59;14.43;;;2.60;;
5787;SDS011;2920;48.158;12.254;2023-02-04T03:39:24;19.50;;;3.50;;
5787;SDS011;2920;48.158;12.254;2023-02-04T03:41:49;6.88;;;2.80;;
5787;SDS011;2920;48.158;12.254;2023-02-04T03:44:15;9.10;;;2.63;;
5787;SDS011;2920;48.158;12.254;2023-02-04T03:46:40;9.98;;;2.10;;
5787;SDS011;2920;48.158;12.254;2023-02-04T03:49:05;8.85;;;2.58;;
5787;SDS011;2920;48.158;12.254;2023-02-04T03:51:31;11.05;;;2.95;;
5787;SDS011;2920;48.158;12.254;2023-02-04T03:53:56;8.88;;;2.25;;
5787;SDS011;2920;48.158;12.254;2023-02-04T03:56:21;10.27;;;2.60;;
5787;SDS011;2920;48.158;12.254;2023-02-04T03:58:46;15.55;;;2.75;;
5787;SDS011;2920;48.158;12.254;2023-02-04T04:01:12;11.57;;;2.63;;
5787;SDS011;2920;48.158;12.254;2023-02-04T04:03:37;7.38;;;2.20;;
5787;SDS011;2920;48.158;12.254;2023-02-04T04:06:03;13.38;;;2.65;;
5787;SDS011;2920;48.158;12.254;2023-02-04T04:08:30;11.73;;;2.55;;
5787;SDS011;2920;48.158;12.254;2023-02-04T04:10:55;8.52;;;1.90;;
5787;SDS011;2920;48.158;12.254;2023-02-04T04:13:20;13.38;;;2.60;;
5787;SDS011;2920;48.158;12.254;2023-02-04T04:15:46;13.90;;;3.28;;
5787;SDS011;2920;48.158;12.254;2023-02-04T04:18:11;8.13;;;1.67;;
5787;SDS011;2920;48.158;12.254;2023-02-04T04:20:36;11.30;;;3.17;;
5787;SDS011;2920;48.158;12.254;2023-02-04T04:23:02;11.23;;;2.45;;
5787;SDS011;2920;48.158;12.254;2023-02-04T04:25:27;5.53;;;1.80;;
5787;SDS011;2920;48.158;12.254;2023-02-04T04:27:52;9.25;;;2.30;;
5787;SDS011;2920;48.158;12.254;2023-02-04T04:30:18;8.43;;;2.22;;
5787;SDS011;2920;48.158;12.254;2023-02-04T04:32:43;12.23;;;2.40;;
5787;SDS011;2920;48.158;12.254;2023-02-04T04:35:08;6.43;;;2.03;;
5787;SDS011;2920;48.158;12.254;2023-02-04T04:37:34;8.73;;;2.20;;
5787;SDS011;2920;48.158;12.254;2023-02-04T04:39:59;8.05;;;2.13;;
5787;SDS011;2920;48.158;12.254;2023-02-04T04:42:25;10.30;;;2.17;;
5787;SDS011;2920;48.158;12.254;2023-02-04T04:44:51;7.07;;;1.98;;
5787;SDS011;2920;48.158;12.254;2023-02-04T04:47:16;8.50;;;3.22;;
5787;SDS011;2920;48.158;12.254;2023-02-04T04:49:41;8.65;;;2.65;;
5787;SDS011;2920;48.158;12.254;2023-02-04T04:52:06;11.10;;;2.38;;
5787;SDS011;2920;48.158;12.254;2023-02-04T04:54:32;6.60;;;1.85;;
5787;SDS011;2920;48.158;12.254;2023-02-04T04:56:57;6.63;;;1.90;;
5787;SDS011;2920;48.158;12.254;2023-02-04T04:59:22;10.57;;;2.30;;
5787;SDS011;2920;48.158;12.254;2023-02-04T05:01:48;15.65;;;3.33;;
5787;SDS011;2920;48.158;12.254;2023-02-04T05:04:13;10.90;;;2.20;;
5787;SDS011;2920;48.158;12.254;2023-02-04T05:06:38;12.45;;;2.80;;
5787;SDS011;2920;48.158;12.254;2023-02-04T05:09:04;8.38;;;2.10;;
5787;SDS011;2920;48.158;12.254;2023-02-04T05:11:29;9.38;;;2.33;;
5787;SDS011;2920;48.158;12.254;2023-02-04T05:13:54;11.02;;;2.00;;
5787;SDS011;2920;48.158;12.254;2023-02-04T05:16:20;9.32;;;2.10;;
5787;SDS011;2920;48.158;12.254;2023-02-04T05:18:45;7.75;;;2.00;;
5787;SDS011;2920;48.158;12.254;2023-02-04T05:21:11;10.10;;;2.35;;
5787;SDS011;2920;48.158;12.254;2023-02-04T05:23:36;4.68;;;1.70;;
5787;SDS011;2920;48.158;12.254;2023-02-04T05:26:01;14.02;;;3.00;;
5787;SDS011;2920;48.158;12.254;2023-02-04T05:28:26;10.77;;;2.17;;
5787;SDS011;2920;48.158;12.254;2023-02-04T05:30:52;8.75;;;2.22;;
5787;SDS011;2920;48.158;12.254;2023-02-04T05:33:17;9.63;;;2.13;;
5787;SDS011;2920;48.158;12.254;2023-02-04T05:35:42;10.77;;;2.00;;
5787;SDS011;2920;48.158;12.254;2023-02-04T05:38:08;11.10;;;1.90;;
5787;SDS011;2920;48.158;12.254;2023-02-04T05:40:33;7.38;;;1.80;;
5787;SDS011;2920;48.158;12.254;2023-02-04T05:42:59;8.38;;;2.17;;
5787;SDS011;2920;48.158;12.254;2023-02-04T05:45:24;4.25;;;1.67;;
5787;SDS011;2920;48.158;12.254;2023-02-04T05:47:50;9.98;;;2.05;;
5787;SDS011;2920;48.158;12.254;2023-02-04T05:50:15;9.63;;;2.08;;
5787;SDS011;2920;48.158;12.254;2023-02-04T05:52:40;17.33;;;2.33;;
5787;SDS011;2920;48.158;12.254;2023-02-04T05:55:06;10.05;;;1.90;;
5787;SDS011;2920;48.158;12.254;2023-02-04T05:57:32;10.07;;;2.55;;
5787;SDS011;2920;48.158;12.254;2023-02-04T05:59:57;13.18;;;2.63;;
5787;SDS011;2920;48.158;12.254;2023-02-04T06:02:23;8.13;;;2.00;;
5787;SDS011;2920;48.158;12.254;2023-02-04T06:04:48;12.05;;;2.55;;
5787;SDS011;2920;48.158;12.254;2023-02-04T06:07:14;7.25;;;2.08;;
5787;SDS011;2920;48.158;12.254;2023-02-04T06:09:39;6.55;;;2.03;;
5787;SDS011;2920;48.158;12.254;2023-02-04T06:12:04;6.10;;;1.77;;
5787;SDS011;2920;48.158;12.254;2023-02-04T06:14:30;6.25;;;2.28;;
5787;SDS011;2920;48.158;12.254;2023-02-04T06:16:55;6.65;;;2.85;;
5787;SDS011;2920;48.158;12.254;2023-02-04T06:19:20;6.05;;;2.03;;
5787;SDS011;2920;48.158;12.254;2023-02-04T06:21:45;8.52;;;2.25;;
5787;SDS011;2920;48.158;12.254;2023-02-04T06:24:11;8.25;;;2.60;;
5787;SDS011;2920;48.158;12.254;2023-02-04T06:26:36;5.03;;;1.90;;
5787;SDS011;2920;48.158;12.254;2023-02-04T06:29:01;8.57;;;2.10;;
5787;SDS011;2920;48.158;12.254;2023-02-04T06:31:27;8.55;;;2.13;;
5787;SDS011;2920;48.158;12.254;2023-02-04T06:33:52;8.02;;;2.10;;
5787;SDS011;2920;48.158;12.254;2023-02-04T06:36:17;14.32;;;2.70;;
5787;SDS011;2920;48.158;12.254;2023-02-04T06:38:43;9.55;;;2.33;;
5787;SDS011;2920;48.158;12.254;2023-02-04T06:41:08;9.85;;;2.17;;
5787;SDS011;2920;48.158;12.254;2023-02-04T06:43:33;14.95;;;2.30;;
5787;SDS011;2920;48.158;12.254;2023-02-04T06:45:58;9.18;;;1.90;;
5787;SDS011;2920;48.158;12.254;2023-02-04T06:48:24;5.38;;;1.58;;
5787;SDS011;2920;48.158;12.254;2023-02-04T06:50:49;7.75;;;1.90;;
5787;SDS011;2920;48.158;12.254;2023-02-04T06:53:15;7.38;;;2.08;;
5787;SDS011;2920;48.158;12.254;2023-02-04T06:55:40;8.35;;;2.35;;
5787;SDS011;2920;48.158;12.254;2023-02-04T06:58:05;6.40;;;2.10;;
5787;SDS011;2920;48.158;12.254;2023-02-04T07:00:31;8.23;;;1.90;;
5787;SDS011;2920;48.158;12.254;2023-02-04T07:02:56;7.55;;;1.95;;
5787;SDS011;2920;48.158;12.254;2023-02-04T07:05:22;9.27;;;2.08;;
5787;SDS011;2920;48.158;12.254;2023-02-04T07:07:48;9.80;;;2.05;;
5787;SDS011;2920;48.158;12.254;2023-02-04T07:10:14;5.18;;;1.80;;
5787;SDS011;2920;48.158;12.254;2023-02-04T07:12:40;7.10;;;2.67;;
5787;SDS011;2920;48.158;12.254;2023-02-04T07:15:06;9.23;;;1.77;;
5787;SDS011;2920;48.158;12.254;2023-02-04T07:17:31;6.80;;;2.22;;
5787;SDS011;2920;48.158;12.254;2023-02-04T07:19:57;4.60;;;1.88;;
5787;SDS011;2920;48.158;12.254;2023-02-04T07:22:22;11.77;;;3.10;;
5787;SDS011;2920;48.158;12.254;2023-02-04T07:24:47;10.60;;;2.78;;
5787;SDS011;2920;48.158;12.254;2023-02-04T07:27:13;13.68;;;3.38;;
5787;SDS011;2920;48.158;12.254;2023-02-04T07:29:38;5.50;;;2.08;;
5787;SDS011;2920;48.158;12.254;2023-02-04T07:32:03;6.88;;;2.05;;
5787;SDS011;2920;48.158;12.254;2023-02-04T07:34:29;4.80;;;1.63;;
5787;SDS011;2920;48.158;12.254;2023-02-04T07:36:54;11.02;;;2.10;;
5787;SDS011;2920;48.158;12.254;2023-02-04T07:39:19;8.20;;;2.30;;
5787;SDS011;2920;48.158;12.254;2023-02-04T07:41:45;12.60;;;2.42;;
5787;SDS011;2920;48.158;12.254;2023-02-04T07:44:10;8.02;;;2.17;;
5787;SDS011;2920;48.158;12.254;2023-02-04T07:46:35;8.45;;;1.58;;
5787;SDS011;2920;48.158;12.254;2023-02-04T07:49:00;9.30;;;2.13;;
5787;SDS011;2920;48.158;12.254;2023-02-04T07:51:26;10.10;;;2.20;;
5787;SDS011;2920;48.158;12.254;2023-02-04T07:53:51;11.90;;;2.22;;
5787;SDS011;2920;48.158;12.254;2023-02-04T07:56:16;7.90;;;1.90;;
5787;SDS011;2920;48.158;12.254;2023-02-04T07:58:42;10.57;;;2.47;;
5787;SDS011;2920;48.158;12.254;2023-02-04T08:01:07;13.43;;;2.13;;
5787;SDS011;2920;48.158;12.254;2023-02-04T08:03:32;6.68;;;2.58;;
5787;SDS011;2920;48.158;12.254;2023-02-04T08:05:58;6.53;;;2.00;;
5787;SDS011;2920;48.158;12.254;2023-02-04T08:08:23;9.43;;;2.13;;
5787;SDS011;2920;48.158;12.254;2023-02-04T08:10:48;6.97;;;1.98;;
5787;SDS011;2920;48.158;12.254;2023-02-04T08:13:13;5.20;;;1.77;;
5787;SDS011;2920;48.158;12.254;2023-02-04T08:15:39;7.95;;;1.98;;
5787;SDS011;2920;48.158;12.254;2023-02-04T08:18:04;6.22;;;2.63;;
5787;SDS011;2920;48.158;12.254;2023-02-04T08:20:29;6.88;;;1.98;;
5787;SDS011;2920;48.158;12.254;2023-02-04T08:22:55;6.82;;;2.00;;
5787;SDS011;2920;48.158;12.254;2023-02-04T08:25:20;6.97;;;1.95;;
5787;SDS011;2920;48.158;12.254;2023-02-04T08:27:45;13.27;;;2.33;;
5787;SDS011;2920;48.158;12.254;2023-02-04T08:30:11;3.80;;;1.40;;
5787;SDS011;2920;48.158;12.254;2023-02-04T08:32:37;3.90;;;1.63;;
5787;SDS011;2920;48.158;12.254;2023-02-04T08:35:03;0.70;;;0.60;;
5787;SDS011;2920;48.158;12.254;2023-02-04T08:37:28;2.78;;;0.85;;
5787;SDS011;2920;48.158;12.254;2023-02-04T08:39:54;5.78;;;0.90;;
5787;SDS011;2920;48.158;12.254;2023-02-04T08:42:20;3.55;;;0.80;;
5787;SDS011;2920;48.158;12.254;2023-02-04T08:44:45;1.65;;;0.82;;
5787;SDS011;2920;48.158;12.254;2023-02-04T08:47:11;0.70;;;0.60;;
5787;SDS011;2920;48.158;12.254;2023-02-04T08:49:36;0.60;;;0.50;;
5787;SDS011;2920;48.158;12.254;2023-02-04T08:52:01;0.30;;;0.30;;
5787;SDS011;2920;48.158;12.254;2023-02-04T08:54:28;1.35;;;0.70;;
5787;SDS011;2920;48.158;12.254;2023-02-04T08:56:54;0.63;;;0.63;;
5787;SDS011;2920;48.158;12.254;2023-02-04T08:59:19;1.25;;;0.60;;
5787;SDS011;2920;48.158;12.254;2023-02-04T09:01:46;1.63;;;0.70;;
5787;SDS011;2920;48.158;12.254;2023-02-04T09:04:13;0.93;;;0.70;;
5787;SDS011;2920;48.158;12.254;2023-02-04T09:06:39;0.50;;;0.50;;
5787;SDS011;2920;48.158;12.254;2023-02-04T09:09:04;1.05;;;0.90;;
5787;SDS011;2920;48.158;12.254;2023-02-04T09:11:29;0.75;;;0.60;;
5787;SDS011;2920;48.158;12.254;2023-02-04T09:13:54;0.55;;;0.55;;
5787;SDS011;2920;48.158;12.254;2023-02-04T09:16:21;1.48;;;1.10;;
5787;SDS011;2920;48.158;12.254;2023-02-04T09:18:46;1.10;;;0.90;;
5787;SDS011;2920;48.158;12.254;2023-02-04T09:21:12;1.00;;;0.90;;
5787;SDS011;2920;48.158;12.254;2023-02-04T09:23:37;2.13;;;1.13;;
5787;SDS011;2920;48.158;12.254;2023-02-04T09:26:02;1.35;;;1.08;;
5787;SDS011;2920;48.158;12.254;2023-02-04T09:28:30;3.53;;;1.33;;
5787;SDS011;2920;48.158;12.254;2023-02-04T09:30:56;1.52;;;0.95;;
5787;SDS011;2920;48.158;12.254;2023-02-04T09:33:21;1.92;;;1.45;;
5787;SDS011;2920;48.158;12.254;2023-02-04T09:35:47;1.90;;;1.38;;
5787;SDS011;2920;48.158;12.254;2023-02-04T09:38:12;3.83;;;1.70;;
5787;SDS011;2920;48.158;12.254;2023-02-04T09:40:42;1.70;;;1.10;;
5787;SDS011;2920;48.158;12.254;2023-02-04T09:43:12;1.50;;;1.30;;
5787;SDS011;2920;48.158;12.254;2023-02-04T09:45:39;1.73;;;1.10;;
5787;SDS011;2920;48.158;12.254;2023-02-04T09:48:05;1.30;;;1.10;;
5787;SDS011;2920;48.158;12.254;2023-02-04T09:50:30;1.75;;;1.30;;
5787;SDS011;2920;48.158;12.254;2023-02-04T09:52:57;1.77;;;1.17;;
5787;SDS011;2920;48.158;12.254;2023-02-04T09:55:27;3.58;;;1.67;;
5787;SDS011;2920;48.158;12.254;2023-02-04T09:57:54;4.87;;;1.80;;
5787;SDS011;2920;48.158;12.254;2023-02-04T10:00:22;1.65;;;1.40;;
5787;SDS011;2920;48.158;12.254;2023-02-04T10:02:49;2.28;;;1.70;;
5787;SDS011;2920;48.158;12.254;2023-02-04T10:05:15;2.38;;;1.73;;
5787;SDS011;2920;48.158;12.254;2023-02-04T10:07:42;1.73;;;1.60;;
5787;SDS011;2920;48.158;12.254;2023-02-04T10:10:16;2.03;;;1.65;;
5787;SDS011;2920;48.158;12.254;2023-02-04T10:12:43;1.90;;;1.63;;
5787;SDS011;2920;48.158;12.254;2023-02-04T10:15:13;4.70;;;2.30;;
5787;SDS011;2920;48.158;12.254;2023-02-04T10:17:39;2.50;;;1.95;;
5787;SDS011;2920;48.158;12.254;2023-02-04T10:20:04;3.60;;;2.17;;
5787;SDS011;2920;48.158;12.254;2023-02-04T10:22:32;4.25;;;1.88;;
5787;SDS011;2920;48.158;12.254;2023-02-04T10:24:58;6.80;;;1.60;;
5787;SDS011;2920;48.158;12.254;2023-02-04T10:27:23;3.22;;;2.10;;
5787;SDS011;2920;48.158;12.254;2023-02-04T10:29:56;2.45;;;1.92;;
5787;SDS011;2920;48.158;12.254;2023-02-04T10:32:26;2.95;;;1.98;;
5787;SDS011;2920;48.158;12.254;2023-02-04T10:34:56;2.33;;;1.58;;
5787;SDS011;2920;48.158;12.254;2023-02-04T10:37:23;1.73;;;1.55;;
5787;SDS011;2920;48.158;12.254;2023-02-04T10:39:48;3.00;;;1.83;;
5787;SDS011;2920;48.158;12.254;2023-02-04T10:44:49;3.05;;;1.92;;
5787;SDS011;2920;48.158;12.254;2023-02-04T10:47:16;6.03;;;1.92;;
5787;SDS011;2920;48.158;12.254;2023-02-04T10:49:55;2.85;;;1.40;;
5787;SDS011;2920;48.158;12.254;2023-02-04T10:52:23;3.20;;;1.60;;
5787;SDS011;2920;48.158;12.254;2023-02-04T10:54:55;1.77;;;1.50;;
5787;SDS011;2920;48.158;12.254;2023-02-04T10:59:50;1.80;;;1.40;;
5787;SDS011;2920;48.158;12.254;2023-02-04T11:04:45;11.30;;;5.68;;
5787;SDS011;2920;48.158;12.254;2023-02-04T11:07:11;3.15;;;1.50;;
5787;SDS011;2920;48.158;12.254;2023-02-04T11:09:39;2.47;;;1.50;;
5787;SDS011;2920;48.158;12.254;2023-02-04T11:12:17;2.35;;;1.73;;
5787;SDS011;2920;48.158;12.254;2023-02-04T11:14:53;3.10;;;1.90;;
5787;SDS011;2920;48.158;12.254;2023-02-04T11:17:20;3.30;;;1.50;;
5787;SDS011;2920;48.158;12.254;2023-02-04T11:19:45;2.13;;;1.48;;
5787;SDS011;2920;48.158;12.254;2023-02-04T11:22:23;2.17;;;1.33;;
5787;SDS011;2920;48.158;12.254;2023-02-04T11:25:33;1.77;;;1.65;;
5787;SDS011;2920;48.158;12.254;2023-02-04T11:27:59;1.30;;;1.20;;
5787;SDS011;2920;48.158;12.254;2023-02-04T11:30:29;2.38;;;1.58;;
5787;SDS011;2920;48.158;12.254;2023-02-04T11:33:00;2.03;;;1.60;;
5787;SDS011;2920;48.158;12.254;2023-02-04T11:35:27;2.90;;;1.27;;
5787;SDS011;2920;48.158;12.254;2023-02-04T11:37:53;3.05;;;1.70;;
5787;SDS011;2920;48.158;12.254;2023-02-04T11:40:23;1.90;;;1.60;;
5787;SDS011;2920;48.158;12.254;2023-02-04T11:45:35;1.80;;;1.40;;
5787;SDS011;2920;48.158;12.254;2023-02-04T11:48:02;2.58;;;1.50;;
5787;SDS011;2920;48.158;12.254;2023-02-04T11:50:34;19.02;;;7.60;;
5787;SDS011;2920;48.158;12.254;2023-02-04T11:53:02;5.32;;;2.65;;
5787;SDS011;2920;48.158;12.254;2023-02-04T11:55:28;3.08;;;1.55;;
5787;SDS011;2920;48.158;12.254;2023-02-04T11:57:55;3.80;;;2.28;;
5787;SDS011;2920;48.158;12.254;2023-02-04T12:00:22;3.38;;;2.67;;
5787;SDS011;2920;48.158;12.254;2023-02-04T12:02:50;3.50;;;1.63;;
5787;SDS011;2920;48.158;12.254;2023-02-04T12:05:20;3.03;;;2.22;;
5787;SDS011;2920;48.158;12.254;2023-02-04T12:07:46;2.75;;;1.67;;
5787;SDS011;2920;48.158;12.254;2023-02-04T12:12:44;2.35;;;1.60;;
5787;SDS011;2920;48.158;12.254;2023-02-04T12:15:15;1.42;;;1.15;;
5787;SDS011;2920;48.158;12.254;2023-02-04T12:17:45;1.77;;;1.05;;
5787;SDS011;2920;48.158;12.254;2023-02-04T12:20:24;1.80;;;1.40;;
5787;SDS011;2920;48.158;12.254;2023-02-04T12:22:49;1.92;;;1.40;;
5787;SDS011;2920;48.158;12.254;2023-02-04T12:25:15;1.58;;;1.42;;
5787;SDS011;2920;48.158;12.254;2023-02-04T12:27:42;1.52;;;1.25;;
5787;SDS011;2920;48.158;12.254;2023-02-04T12:30:07;1.20;;;1.10;;
5787;SDS011;2920;48.158;12.254;2023-02-04T12:32:33;1.63;;;1.02;;
5787;SDS011;2920;48.158;12.254;2023-02-04T12:34:58;1.25;;;1.05;;
5787;SDS011;2920;48.158;12.254;2023-02-04T12:37:24;1.20;;;1.10;;
5787;SDS011;2920;48.158;12.254;2023-02-04T12:39:49;2.10;;;1.08;;
5787;SDS011;2920;48.158;12.254;2023-02-04T12:42:14;0.93;;;0.93;;
5787;SDS011;2920;48.158;12.254;2023-02-04T12:44:39;4.55;;;3.83;;
5787;SDS011;2920;48.158;12.254;2023-02-04T12:47:05;1.20;;;1.10;;
5787;SDS011;2920;48.158;12.254;2023-02-04T12:49:30;1.20;;;1.10;;
5787;SDS011;2920;48.158;12.254;2023-02-04T12:51:55;1.10;;;0.82;;
5787;SDS011;2920;48.158;12.254;2023-02-04T12:54:23;1.73;;;0.98;;
5787;SDS011;2920;48.158;12.254;2023-02-04T12:56:48;1.27;;;1.17;;
5787;SDS011;2920;48.158;12.254;2023-02-04T12:59:16;1.05;;;0.80;;
5787;SDS011;2920;48.158;12.254;2023-02-04T13:01:41;1.42;;;1.20;;
5787;SDS011;2920;48.158;12.254;2023-02-04T13:04:06;1.10;;;1.00;;
5787;SDS011;2920;48.158;12.254;2023-02-04T13:06:32;1.63;;;1.17;;
5787;SDS011;2920;48.158;12.254;2023-02-04T13:08:57;1.58;;;1.13;;
5787;SDS011;2920;48.158;12.254;2023-02-04T13:11:22;1.58;;;1.02;;
5787;SDS011;2920;48.158;12.254;2023-02-04T13:13:48;1.35;;;1.17;;
5787;SDS011;2920;48.158;12.254;2023-02-04T13:16:13;1.50;;;1.27;;
5787;SDS011;2920;48.158;12.254;2023-02-04T13:18:38;1.63;;;1.15;;
5787;SDS011;2920;48.158;12.254;2023-02-04T13:21:04;1.65;;;1.15;;
5787;SDS011;2920;48.158;12.254;2023-02-04T13:23:29;2.50;;;1.13;;
5787;SDS011;2920;48.158;12.254;2023-02-04T13:25:54;1.45;;;1.00;;
5787;SDS011;2920;48.158;12.254;2023-02-04T13:28:20;2.22;;;1.23;;
5787;SDS011;2920;48.158;12.254;2023-02-04T13:30:45;1.40;;;1.20;;
5787;SDS011;2920;48.158;12.254;2023-02-04T13:33:10;3.40;;;1.23;;
5787;SDS011;2920;48.158;12.254;2023-02-04T13:35:36;2.30;;;1.55;;
5787;SDS011;2920;48.158;12.254;2023-02-04T13:38:02;1.58;;;1.23;;
5787;SDS011;2920;48.158;12.254;2023-02-04T13:40:27;1.55;;;1.33;;
5787;SDS011;2920;48.158;12.254;2023-02-04T13:42:52;1.35;;;1.10;;
5787;SDS011;2920;48.158;12.254;2023-02-04T13:45:18;0.90;;;0.90;;
5787;SDS011;2920;48.158;12.254;2023-02-04T13:47:43;0.88;;;0.88;;
5787;SDS011;2920;48.158;12.254;2023-02-04T13:50:08;1.75;;;1.15;;
5787;SDS011;2920;48.158;12.254;2023-02-04T13:52:34;1.70;;;1.30;;
5787;SDS011;2920;48.158;12.254;2023-02-04T13:54:59;1.70;;;1.30;;
5787;SDS011;2920;48.158;12.254;2023-02-04T13:57:25;1.88;;;1.50;;
5787;SDS011;2920;48.158;12.254;2023-02-04T13:59:50;1.65;;;1.25;;
5787;SDS011;2920;48.158;12.254;2023-02-04T14:02:15;1.23;;;1.13;;
5787;SDS011;2920;48.158;12.254;2023-02-04T14:04:41;1.10;;;1.00;;
5787;SDS011;2920;48.158;12.254;2023-02-04T14:07:08;0.85;;;0.82;;
5787;SDS011;2920;48.158;12.254;2023-02-04T14:09:33;1.95;;;0.98;;
5787;SDS011;2920;48.158;12.254;2023-02-04T14:11:58;1.10;;;1.00;;
5787;SDS011;2920;48.158;12.254;2023-02-04T14:14:24;1.05;;;1.00;;
5787;SDS011;2920;48.158;12.254;2023-02-04T14:16:49;1.55;;;1.00;;
5787;SDS011;2920;48.158;12.254;2023-02-04T14:19:15;2.53;;;1.40;;
5787;SDS011;2920;48.158;12.254;2023-02-04T14:21:40;1.63;;;1.30;;
5787;SDS011;2920;48.158;12.254;2023-02-04T14:24:06;1.70;;;1.27;;
5787;SDS011;2920;48.158;12.254;2023-02-04T14:26:31;1.80;;;1.25;;
5787;SDS011;2920;48.158;12.254;2023-02-04T14:28:56;1.63;;;1.17;;
5787;SDS011;2920;48.158;12.254;2023-02-04T14:31:22;2.00;;;1.42;;
5787;SDS011;2920;48.158;12.254;2023-02-04T14:33:47;2.45;;;1.42;;
5787;SDS011;2920;48.158;12.254;2023-02-04T14:36:14;1.80;;;1.23;;
5787;SDS011;2920;48.158;12.254;2023-02-04T14:38:39;2.88;;;1.35;;
5787;SDS011;2920;48.158;12.254;2023-02-04T14:41:04;1.55;;;1.30;;
5787;SDS011;2920;48.158;12.254;2023-02-04T14:43:30;2.33;;;1.00;;
5787;SDS011;2920;48.158;12.254;2023-02-04T14:46:01;1.85;;;1.23;;
5787;SDS011;2920;48.158;12.254;2023-02-04T14:48:26;0.93;;;0.80;;
5787;SDS011;2920;48.158;12.254;2023-02-04T14:50:51;1.10;;;1.00;;
5787;SDS011;2920;48.158;12.254;2023-02-04T14:53:17;1.40;;;1.02;;
5787;SDS011;2920;48.158;12.254;2023-02-04T14:55:42;0.98;;;0.88;;
5787;SDS011;2920;48.158;12.254;2023-02-04T14:58:07;1.15;;;1.05;;
5787;SDS011;2920;48.158;12.254;2023-02-04T15:00:33;1.33;;;0.88;;
5787;SDS011;2920;48.158;12.254;2023-02-04T15:02:58;1.67;;;1.00;;
5787;SDS011;2920;48.158;12.254;2023-02-04T15:05:23;1.15;;;0.93;;